sensor_id;sensor_type;location;lat;lon;timestamp;pressure;altitude;pressure_sealevel;temperature;humidity
74329;BME280;62749;51.982;5.916;2023-05-07T00:00:37;101422.31;;;15.09;95.22
74329;BME280;62749;51.982;5.916;2023-05-07T00:03:07;101430.16;;;15.12;95.38
74329;BME280;62749;51.982;5.916;2023-05-07T00:05:37;101432.66;;;15.15;95.62
74329;BME280;62749;51.982;5.916;2023-05-07T00:08:10;101426.22;;;15.19;95.99
74329;BME280;62749;51.982;5.916;2023-05-07T00:10:40;101423.66;;;15.17;95.23
74329;BME280;62749;51.982;5.916;2023-05-07T00:13:10;101419.16;;;15.18;95.49
74329;BME280;62749;51.982;5.916;2023-05-07T00:15:39;101431.38;;;15.22;95.63
74329;BME280;62749;51.982;5.916;2023-05-07T00:18:09;101434.19;;;15.19;96.12
74329;BME280;62749;51.982;5.916;2023-05-07T00:20:38;101440.06;;;15.26;95.59
74329;BME280;62749;51.982;5.916;2023-05-07T00:23:10;101437.41;;;15.26;95.59
74329;BME280;62749;51.982;5.916;2023-05-07T00:25:39;101427.78;;;15.23;95.82
74329;BME280;62749;51.982;5.916;2023-05-07T00:28:09;101425.13;;;15.23;95.26
74329;BME280;62749;51.982;5.916;2023-05-07T00:30:38;101427.41;;;15.31;95.65
74329;BME280;62749;51.982;5.916;2023-05-07T00:33:08;101425.91;;;15.25;95.14
74329;BME280;62749;51.982;5.916;2023-05-07T00:35:39;101414.41;;;15.25;94.81
74329;BME280;62749;51.982;5.916;2023-05-07T00:38:11;101416.31;;;15.23;94.97
74329;BME280;62749;51.982;5.916;2023-05-07T00:40:40;101406.19;;;15.12;94.68
74329;BME280;62749;51.982;5.916;2023-05-07T00:43:10;101419.81;;;15.06;94.57
74329;BME280;62749;51.982;5.916;2023-05-07T00:45:40;101416.44;;;15.02;94.64
74329;BME280;62749;51.982;5.916;2023-05-07T00:48:09;101413.22;;;14.95;94.91
74329;BME280;62749;51.982;5.916;2023-05-07T00:50:39;101414.03;;;14.97;95.13
74329;BME280;62749;51.982;5.916;2023-05-07T00:53:11;101392.44;;;14.86;94.68
74329;BME280;62749;51.982;5.916;2023-05-07T00:55:41;101396.66;;;14.90;95.32
74329;BME280;62749;51.982;5.916;2023-05-07T00:58:11;101395.00;;;14.87;94.94
74329;BME280;62749;51.982;5.916;2023-05-07T01:00:40;101394.38;;;14.82;95.28
74329;BME280;62749;51.982;5.916;2023-05-07T01:03:09;101405.56;;;14.89;95.39
74329;BME280;62749;51.982;5.916;2023-05-07T01:05:41;101394.00;;;14.90;95.15
74329;BME280;62749;51.982;5.916;2023-05-07T01:08:15;101398.53;;;14.88;94.99
74329;BME280;62749;51.982;5.916;2023-05-07T01:10:46;101391.63;;;14.84;95.08
74329;BME280;62749;51.982;5.916;2023-05-07T01:13:16;101393.44;;;14.83;94.40
74329;BME280;62749;51.982;5.916;2023-05-07T01:15:46;101391.72;;;14.82;94.45
74329;BME280;62749;51.982;5.916;2023-05-07T01:18:15;101385.84;;;14.76;94.40
74329;BME280;62749;51.982;5.916;2023-05-07T01:20:45;101385.75;;;14.77;94.87
74329;BME280;62749;51.982;5.916;2023-05-07T01:23:18;101383.44;;;14.71;94.70
74329;BME280;62749;51.982;5.916;2023-05-07T01:25:51;101386.94;;;14.71;94.85
74329;BME280;62749;51.982;5.916;2023-05-07T01:28:21;101384.28;;;14.71;94.98
74329;BME280;62749;51.982;5.916;2023-05-07T01:30:54;101387.88;;;14.70;95.19
74329;BME280;62749;51.982;5.916;2023-05-07T01:33:26;101384.38;;;14.70;95.01
74329;BME280;62749;51.982;5.916;2023-05-07T01:35:59;101377.09;;;14.73;94.75
74329;BME280;62749;51.982;5.916;2023-05-07T01:38:33;101362.56;;;14.62;95.05
74329;BME280;62749;51.982;5.916;2023-05-07T01:41:03;101371.13;;;14.68;94.74
74329;BME280;62749;51.982;5.916;2023-05-07T01:43:33;101387.34;;;14.81;94.59
74329;BME280;62749;51.982;5.916;2023-05-07T01:46:03;101381.00;;;14.84;94.80
74329;BME280;62749;51.982;5.916;2023-05-07T01:48:34;101380.06;;;14.85;93.98
74329;BME280;62749;51.982;5.916;2023-05-07T01:51:04;101381.00;;;14.84;94.01
74329;BME280;62749;51.982;5.916;2023-05-07T01:53:40;101368.88;;;14.78;94.22
74329;BME280;62749;51.982;5.916;2023-05-07T01:56:10;101375.78;;;14.82;94.28
74329;BME280;62749;51.982;5.916;2023-05-07T01:58:39;101383.50;;;14.87;94.27
74329;BME280;62749;51.982;5.916;2023-05-07T02:01:09;101378.34;;;14.84;93.71
74329;BME280;62749;51.982;5.916;2023-05-07T02:03:38;101388.81;;;14.87;94.04
74329;BME280;62749;51.982;5.916;2023-05-07T02:06:08;101392.56;;;14.83;93.94
74329;BME280;62749;51.982;5.916;2023-05-07T02:08:40;101387.25;;;14.83;94.29
74329;BME280;62749;51.982;5.916;2023-05-07T02:11:09;101393.22;;;14.88;94.46
74329;BME280;62749;51.982;5.916;2023-05-07T02:13:38;101401.19;;;14.88;93.23
74329;BME280;62749;51.982;5.916;2023-05-07T02:16:08;101391.34;;;14.90;93.41
74329;BME280;62749;51.982;5.916;2023-05-07T02:18:37;101387.91;;;14.88;93.25
74329;BME280;62749;51.982;5.916;2023-05-07T02:21:06;101395.19;;;14.84;92.78
74329;BME280;62749;51.982;5.916;2023-05-07T02:23:36;101388.03;;;14.85;92.78
74329;BME280;62749;51.982;5.916;2023-05-07T02:26:08;101389.75;;;14.86;93.08
74329;BME280;62749;51.982;5.916;2023-05-07T02:28:37;101388.13;;;14.83;93.27
74329;BME280;62749;51.982;5.916;2023-05-07T02:31:07;101387.34;;;14.81;92.38
74329;BME280;62749;51.982;5.916;2023-05-07T02:33:36;101376.06;;;14.76;92.86
74329;BME280;62749;51.982;5.916;2023-05-07T02:36:07;101375.91;;;14.79;92.53
74329;BME280;62749;51.982;5.916;2023-05-07T02:38:36;101372.63;;;14.74;93.15
74329;BME280;62749;51.982;5.916;2023-05-07T02:41:08;101365.75;;;14.70;92.71
74329;BME280;62749;51.982;5.916;2023-05-07T02:43:38;101371.69;;;14.75;92.41
74329;BME280;62749;51.982;5.916;2023-05-07T02:46:08;101373.41;;;14.76;92.59
74329;BME280;62749;51.982;5.916;2023-05-07T02:48:38;101355.38;;;14.64;92.45
74329;BME280;62749;51.982;5.916;2023-05-07T02:51:14;101382.09;;;14.80;92.15
74329;BME280;62749;51.982;5.916;2023-05-07T02:53:43;101388.13;;;14.83;91.85
74329;BME280;62749;51.982;5.916;2023-05-07T02:56:15;101391.50;;;14.87;92.23
74329;BME280;62749;51.982;5.916;2023-05-07T02:58:45;101392.28;;;14.89;91.89
74329;BME280;62749;51.982;5.916;2023-05-07T03:01:14;101391.53;;;14.85;91.76
74329;BME280;62749;51.982;5.916;2023-05-07T03:03:44;101390.38;;;14.91;91.66
74329;BME280;62749;51.982;5.916;2023-05-07T03:06:13;101396.47;;;14.93;91.76
74329;BME280;62749;51.982;5.916;2023-05-07T03:08:43;101385.63;;;14.80;90.92
74329;BME280;62749;51.982;5.916;2023-05-07T03:11:15;101387.56;;;14.77;91.39
74329;BME280;62749;51.982;5.916;2023-05-07T03:13:45;101389.59;;;14.71;91.33
74329;BME280;62749;51.982;5.916;2023-05-07T03:16:15;101380.78;;;14.71;91.51
74329;BME280;62749;51.982;5.916;2023-05-07T03:18:45;101382.69;;;14.67;91.09
74329;BME280;62749;51.982;5.916;2023-05-07T03:21:14;101389.59;;;14.71;91.91
74329;BME280;62749;51.982;5.916;2023-05-07T03:23:44;101380.81;;;14.69;91.63
74329;BME280;62749;51.982;5.916;2023-05-07T03:26:16;101374.66;;;14.69;91.43
74329;BME280;62749;51.982;5.916;2023-05-07T03:28:46;101373.78;;;14.68;91.13
74329;BME280;62749;51.982;5.916;2023-05-07T03:31:16;101386.25;;;14.66;90.72
74329;BME280;62749;51.982;5.916;2023-05-07T03:33:52;101382.69;;;14.67;90.76
74329;BME280;62749;51.982;5.916;2023-05-07T03:36:22;101370.84;;;14.55;90.48
74329;BME280;62749;51.982;5.916;2023-05-07T03:38:53;101370.78;;;14.57;90.72
74329;BME280;62749;51.982;5.916;2023-05-07T03:41:25;101375.31;;;14.55;90.79
74329;BME280;62749;51.982;5.916;2023-05-07T03:43:56;101372.81;;;14.52;91.28
74329;BME280;62749;51.982;5.916;2023-05-07T03:46:25;101376.78;;;14.61;91.26
74329;BME280;62749;51.982;5.916;2023-05-07T03:48:55;101382.28;;;14.57;90.78
74329;BME280;62749;51.982;5.916;2023-05-07T03:51:24;101380.56;;;14.56;91.21
74329;BME280;62749;51.982;5.916;2023-05-07T03:53:54;101365.00;;;14.49;91.29
74329;BME280;62749;51.982;5.916;2023-05-07T03:56:26;101377.03;;;14.56;91.11
74329;BME280;62749;51.982;5.916;2023-05-07T03:58:56;101390.31;;;14.56;91.06
74329;BME280;62749;51.982;5.916;2023-05-07T04:01:25;101394.00;;;14.53;91.55
74329;BME280;62749;51.982;5.916;2023-05-07T04:03:55;101395.94;;;14.50;91.46
74329;BME280;62749;51.982;5.916;2023-05-07T04:06:24;101391.72;;;14.46;92.35
74329;BME280;62749;51.982;5.916;2023-05-07T04:08:54;101401.41;;;14.47;92.09
74329;BME280;62749;51.982;5.916;2023-05-07T04:11:27;101391.25;;;14.37;92.74
74329;BME280;62749;51.982;5.916;2023-05-07T04:13:56;101394.66;;;14.39;92.67
74329;BME280;62749;51.982;5.916;2023-05-07T04:16:26;101399.97;;;14.39;92.90
74329;BME280;62749;51.982;5.916;2023-05-07T04:18:55;101399.91;;;14.41;92.82
74329;BME280;62749;51.982;5.916;2023-05-07T04:21:25;101402.34;;;14.46;92.97
74329;BME280;62749;51.982;5.916;2023-05-07T04:23:55;101404.63;;;14.53;93.42
74329;BME280;62749;51.982;5.916;2023-05-07T04:26:27;101408.22;;;14.52;92.76
74329;BME280;62749;51.982;5.916;2023-05-07T04:28:57;101401.97;;;14.53;93.27
74329;BME280;62749;51.982;5.916;2023-05-07T04:31:27;101412.38;;;14.58;93.42
74329;BME280;62749;51.982;5.916;2023-05-07T04:33:57;101404.88;;;14.49;93.58
74329;BME280;62749;51.982;5.916;2023-05-07T04:36:27;101403.28;;;14.45;93.82
74329;BME280;62749;51.982;5.916;2023-05-07T04:38:56;101404.78;;;14.50;94.21
74329;BME280;62749;51.982;5.916;2023-05-07T04:41:29;101409.47;;;14.45;94.05
74329;BME280;62749;51.982;5.916;2023-05-07T04:43:58;101408.50;;;14.46;94.30
74329;BME280;62749;51.982;5.916;2023-05-07T04:46:30;101406.81;;;14.45;94.44
74329;BME280;62749;51.982;5.916;2023-05-07T04:48:59;101406.53;;;14.32;94.68
74329;BME280;62749;51.982;5.916;2023-05-07T04:51:29;101409.03;;;14.35;94.71
74329;BME280;62749;51.982;5.916;2023-05-07T04:53:59;101404.75;;;14.33;95.27
74329;BME280;62749;51.982;5.916;2023-05-07T04:56:31;101409.31;;;14.29;94.71
74329;BME280;62749;51.982;5.916;2023-05-07T04:59:00;101417.81;;;14.37;95.18
74329;BME280;62749;51.982;5.916;2023-05-07T05:01:30;101407.47;;;14.31;95.24
74329;BME280;62749;51.982;5.916;2023-05-07T05:03:59;101418.44;;;14.42;95.24
74329;BME280;62749;51.982;5.916;2023-05-07T05:06:29;101423.28;;;14.34;95.02
74329;BME280;62749;51.982;5.916;2023-05-07T05:08:58;101426.84;;;14.33;95.64
74329;BME280;62749;51.982;5.916;2023-05-07T05:11:30;101418.19;;;14.30;95.34
74329;BME280;62749;51.982;5.916;2023-05-07T05:14:00;101429.53;;;14.33;95.96
74329;BME280;62749;51.982;5.916;2023-05-07T05:16:29;101431.09;;;14.37;95.79
74329;BME280;62749;51.982;5.916;2023-05-07T05:18:59;101425.41;;;14.45;95.60
74329;BME280;62749;51.982;5.916;2023-05-07T05:21:31;101420.47;;;14.37;95.25
74329;BME280;62749;51.982;5.916;2023-05-07T05:24:01;101429.28;;;14.38;95.27
74329;BME280;62749;51.982;5.916;2023-05-07T05:26:33;101443.25;;;14.43;95.30
74329;BME280;62749;51.982;5.916;2023-05-07T05:29:02;101433.41;;;14.45;95.44
74329;BME280;62749;51.982;5.916;2023-05-07T05:31:32;101440.91;;;14.54;94.97
74329;BME280;62749;51.982;5.916;2023-05-07T05:34:02;101426.00;;;14.52;95.38
74329;BME280;62749;51.982;5.916;2023-05-07T05:36:32;101439.34;;;14.50;94.65
74329;BME280;62749;51.982;5.916;2023-05-07T05:39:01;101443.50;;;14.56;95.38
74329;BME280;62749;51.982;5.916;2023-05-07T05:41:33;101438.53;;;14.48;94.53
74329;BME280;62749;51.982;5.916;2023-05-07T05:44:04;101444.59;;;14.52;95.24
74329;BME280;62749;51.982;5.916;2023-05-07T05:46:33;101448.56;;;14.43;95.32
74329;BME280;62749;51.982;5.916;2023-05-07T05:49:03;101448.47;;;14.45;94.91
74329;BME280;62749;51.982;5.916;2023-05-07T05:51:33;101454.13;;;14.56;95.20
74329;BME280;62749;51.982;5.916;2023-05-07T05:54:03;101457.66;;;14.56;94.85
74329;BME280;62749;51.982;5.916;2023-05-07T05:56:36;101458.97;;;14.48;95.00
74329;BME280;62749;51.982;5.916;2023-05-07T05:59:05;101464.84;;;14.54;95.29
74329;BME280;62749;51.982;5.916;2023-05-07T06:01:35;101468.06;;;14.61;94.83
74329;BME280;62749;51.982;5.916;2023-05-07T06:04:04;101460.47;;;14.53;95.22
74329;BME280;62749;51.982;5.916;2023-05-07T06:06:34;101462.09;;;14.56;94.75
74329;BME280;62749;51.982;5.916;2023-05-07T06:09:03;101468.22;;;14.58;95.30
74329;BME280;62749;51.982;5.916;2023-05-07T06:11:35;101456.50;;;14.62;94.61
74329;BME280;62749;51.982;5.916;2023-05-07T06:14:06;101459.06;;;14.64;94.69
74329;BME280;62749;51.982;5.916;2023-05-07T06:16:35;101467.94;;;14.64;94.74
74329;BME280;62749;51.982;5.916;2023-05-07T06:19:04;101465.41;;;14.61;95.11
74329;BME280;62749;51.982;5.916;2023-05-07T06:21:34;101465.19;;;14.66;94.86
74329;BME280;62749;51.982;5.916;2023-05-07T06:24:04;101454.25;;;14.72;95.08
74329;BME280;62749;51.982;5.916;2023-05-07T06:26:36;101465.78;;;14.72;94.73
74329;BME280;62749;51.982;5.916;2023-05-07T06:29:06;101470.97;;;14.76;94.52
74329;BME280;62749;51.982;5.916;2023-05-07T06:31:36;101456.41;;;14.64;94.85
74329;BME280;62749;51.982;5.916;2023-05-07T06:34:05;101462.47;;;14.67;95.24
74329;BME280;62749;51.982;5.916;2023-05-07T06:36:35;101462.53;;;14.66;94.96
74329;BME280;62749;51.982;5.916;2023-05-07T06:39:04;101471.88;;;14.75;95.07
74329;BME280;62749;51.982;5.916;2023-05-07T06:41:36;101468.91;;;14.81;95.17
74329;BME280;62749;51.982;5.916;2023-05-07T06:44:06;101473.47;;;14.96;94.80
74329;BME280;62749;51.982;5.916;2023-05-07T06:46:35;101472.69;;;14.94;94.38
74329;BME280;62749;51.982;5.916;2023-05-07T06:49:04;101468.47;;;14.90;93.56
74329;BME280;62749;51.982;5.916;2023-05-07T06:51:34;101466.75;;;14.89;93.87
74329;BME280;62749;51.982;5.916;2023-05-07T06:54:03;101468.72;;;15.03;93.94
74329;BME280;62749;51.982;5.916;2023-05-07T06:56:36;101470.91;;;14.95;93.73
74329;BME280;62749;51.982;5.916;2023-05-07T06:59:06;101477.88;;;14.97;93.28
74329;BME280;62749;51.982;5.916;2023-05-07T07:01:36;101481.38;;;14.98;92.66
74329;BME280;62749;51.982;5.916;2023-05-07T07:04:05;101475.84;;;15.02;93.45
74329;BME280;62749;51.982;5.916;2023-05-07T07:06:35;101476.47;;;15.08;93.14
74329;BME280;62749;51.982;5.916;2023-05-07T07:09:05;101474.44;;;15.13;93.02
74329;BME280;62749;51.982;5.916;2023-05-07T07:11:37;101481.72;;;15.27;92.59
74329;BME280;62749;51.982;5.916;2023-05-07T07:14:06;101484.75;;;15.19;92.29
74329;BME280;62749;51.982;5.916;2023-05-07T07:16:36;101481.66;;;15.28;92.96
74329;BME280;62749;51.982;5.916;2023-05-07T07:19:05;101494.72;;;15.33;91.87
74329;BME280;62749;51.982;5.916;2023-05-07T07:21:35;101489.25;;;15.36;91.81
74329;BME280;62749;51.982;5.916;2023-05-07T07:24:04;101483.59;;;15.25;91.73
74329;BME280;62749;51.982;5.916;2023-05-07T07:26:36;101488.38;;;15.18;91.29
74329;BME280;62749;51.982;5.916;2023-05-07T07:29:06;101489.16;;;15.20;91.47
74329;BME280;62749;51.982;5.916;2023-05-07T07:31:35;101484.84;;;15.17;91.28
74329;BME280;62749;51.982;5.916;2023-05-07T07:34:05;101486.63;;;15.17;91.11
74329;BME280;62749;51.982;5.916;2023-05-07T07:36:35;101492.75;;;15.19;91.28
74329;BME280;62749;51.982;5.916;2023-05-07T07:39:04;101476.16;;;15.14;90.39
74329;BME280;62749;51.982;5.916;2023-05-07T07:41:33;101492.75;;;15.19;91.10
74329;BME280;62749;51.982;5.916;2023-05-07T07:44:05;101499.00;;;15.18;91.14
74329;BME280;62749;51.982;5.916;2023-05-07T07:46:35;101494.41;;;15.22;91.40
74329;BME280;62749;51.982;5.916;2023-05-07T07:49:04;101499.97;;;15.34;91.15
74329;BME280;62749;51.982;5.916;2023-05-07T07:51:34;101499.72;;;15.39;89.38
74329;BME280;62749;51.982;5.916;2023-05-07T07:54:03;101493.78;;;15.34;89.16
74329;BME280;62749;51.982;5.916;2023-05-07T07:56:33;101503.81;;;15.46;89.82
74329;BME280;62749;51.982;5.916;2023-05-07T07:59:05;101504.81;;;15.44;89.54
74329;BME280;62749;51.982;5.916;2023-05-07T08:01:34;101510.22;;;15.42;89.75
74329;BME280;62749;51.982;5.916;2023-05-07T08:04:04;101508.81;;;15.53;89.82
74329;BME280;62749;51.982;5.916;2023-05-07T08:06:33;101505.59;;;15.63;90.56
74329;BME280;62749;51.982;5.916;2023-05-07T08:09:03;101502.94;;;15.63;89.64
74329;BME280;62749;51.982;5.916;2023-05-07T08:11:32;101503.38;;;15.72;90.25
74329;BME280;62749;51.982;5.916;2023-05-07T08:14:04;101506.28;;;15.67;90.43
74329;BME280;62749;51.982;5.916;2023-05-07T08:16:34;101507.38;;;15.80;90.13
74329;BME280;62749;51.982;5.916;2023-05-07T08:19:03;101509.56;;;15.90;90.45
74329;BME280;62749;51.982;5.916;2023-05-07T08:21:34;101513.25;;;15.70;89.88
74329;BME280;62749;51.982;5.916;2023-05-07T08:24:04;101508.88;;;15.69;90.70
74329;BME280;62749;51.982;5.916;2023-05-07T08:26:33;101508.09;;;15.67;90.02
74329;BME280;62749;51.982;5.916;2023-05-07T08:29:08;101501.34;;;15.77;91.11
74329;BME280;62749;51.982;5.916;2023-05-07T08:31:37;101512.00;;;15.77;90.49
74329;BME280;62749;51.982;5.916;2023-05-07T08:34:07;101496.09;;;15.75;91.17
74329;BME280;62749;51.982;5.916;2023-05-07T08:36:47;101511.84;;;15.98;90.42
74329;BME280;62749;51.982;5.916;2023-05-07T08:39:16;101514.47;;;16.15;91.06
74329;BME280;62749;51.982;5.916;2023-05-07T08:41:48;101509.50;;;16.25;90.26
74329;BME280;62749;51.982;5.916;2023-05-07T08:44:22;101513.88;;;16.26;88.51
74329;BME280;62749;51.982;5.916;2023-05-07T08:46:56;101517.56;;;16.23;88.16
74329;BME280;62749;51.982;5.916;2023-05-07T08:49:28;101525.06;;;16.33;87.85
74329;BME280;62749;51.982;5.916;2023-05-07T08:51:58;101516.97;;;16.34;87.84
74329;BME280;62749;51.982;5.916;2023-05-07T08:54:28;101516.41;;;16.45;88.17
74329;BME280;62749;51.982;5.916;2023-05-07T08:56:58;101515.63;;;16.43;87.57
74329;BME280;62749;51.982;5.916;2023-05-07T08:59:30;101513.53;;;16.32;86.34
74329;BME280;62749;51.982;5.916;2023-05-07T09:02:00;101510.34;;;16.25;86.60
74329;BME280;62749;51.982;5.916;2023-05-07T09:04:29;101522.22;;;16.36;86.54
74329;BME280;62749;51.982;5.916;2023-05-07T09:07:20;101517.34;;;16.44;87.19
74329;BME280;62749;51.982;5.916;2023-05-07T09:09:50;101522.75;;;16.42;87.39
74329;BME280;62749;51.982;5.916;2023-05-07T09:12:21;101520.78;;;16.62;88.39
74329;BME280;62749;51.982;5.916;2023-05-07T09:14:53;101510.28;;;16.75;87.36
74329;BME280;62749;51.982;5.916;2023-05-07T09:17:22;101522.56;;;16.94;87.75
74329;BME280;62749;51.982;5.916;2023-05-07T09:19:54;101529.03;;;17.06;87.58
74329;BME280;62749;51.982;5.916;2023-05-07T09:22:24;101525.19;;;17.26;88.19
74329;BME280;62749;51.982;5.916;2023-05-07T09:24:53;101528.31;;;17.34;84.96
74329;BME280;62749;51.982;5.916;2023-05-07T09:27:22;101515.91;;;17.33;85.24
74329;BME280;62749;51.982;5.916;2023-05-07T09:29:55;101522.41;;;17.43;84.16
74329;BME280;62749;51.982;5.916;2023-05-07T09:32:25;101518.50;;;17.49;84.79
74329;BME280;62749;51.982;5.916;2023-05-07T09:35:14;101520.72;;;17.57;83.85
74329;BME280;62749;51.982;5.916;2023-05-07T09:37:44;101519.69;;;17.74;84.08
74329;BME280;62749;51.982;5.916;2023-05-07T09:40:20;101517.88;;;17.89;84.56
74329;BME280;62749;51.982;5.916;2023-05-07T09:42:50;101516.31;;;18.01;82.27
74329;BME280;62749;51.982;5.916;2023-05-07T09:45:26;101511.81;;;18.01;82.26
74329;BME280;62749;51.982;5.916;2023-05-07T09:47:57;101503.06;;;17.99;81.17
74329;BME280;62749;51.982;5.916;2023-05-07T09:50:29;101521.47;;;18.18;80.12
74329;BME280;62749;51.982;5.916;2023-05-07T09:52:58;101514.41;;;18.17;79.83
74329;BME280;62749;51.982;5.916;2023-05-07T09:55:28;101521.38;;;18.20;80.40
74329;BME280;62749;51.982;5.916;2023-05-07T09:57:58;101521.72;;;18.28;78.43
74329;BME280;62749;51.982;5.916;2023-05-07T10:00:31;101518.69;;;18.05;76.64
74329;BME280;62749;51.982;5.916;2023-05-07T10:03:03;101521.19;;;18.08;77.82
74329;BME280;62749;51.982;5.916;2023-05-07T10:05:34;101530.16;;;18.22;77.96
74329;BME280;62749;51.982;5.916;2023-05-07T10:08:04;101525.84;;;18.34;78.54
74329;BME280;62749;51.982;5.916;2023-05-07T10:10:34;101516.13;;;18.33;77.42
74329;BME280;62749;51.982;5.916;2023-05-07T10:13:04;101524.38;;;18.57;77.11
74329;BME280;62749;51.982;5.916;2023-05-07T10:15:41;101513.84;;;18.68;77.87
74329;BME280;62749;51.982;5.916;2023-05-07T10:18:12;101523.53;;;18.98;77.21
74329;BME280;62749;51.982;5.916;2023-05-07T10:20:46;101531.88;;;18.94;75.04
74329;BME280;62749;51.982;5.916;2023-05-07T10:23:22;101530.78;;;18.96;76.77
74329;BME280;62749;51.982;5.916;2023-05-07T10:25:55;101525.72;;;19.19;75.43
74329;BME280;62749;51.982;5.916;2023-05-07T10:28:27;101533.19;;;19.41;74.03
74329;BME280;62749;51.982;5.916;2023-05-07T10:31:10;101530.38;;;19.43;74.82
74329;BME280;62749;51.982;5.916;2023-05-07T10:33:46;101520.38;;;19.72;73.62
74329;BME280;62749;51.982;5.916;2023-05-07T10:36:18;101518.34;;;20.02;73.73
74329;BME280;62749;51.982;5.916;2023-05-07T10:38:49;101524.34;;;20.18;74.84
74329;BME280;62749;51.982;5.916;2023-05-07T10:41:20;101524.06;;;20.47;72.09
74329;BME280;62749;51.982;5.916;2023-05-07T10:43:49;101521.47;;;20.59;72.57
74329;BME280;62749;51.982;5.916;2023-05-07T10:46:22;101526.38;;;20.65;70.28
74329;BME280;62749;51.982;5.916;2023-05-07T10:49:08;101525.94;;;20.71;71.08
74329;BME280;62749;51.982;5.916;2023-05-07T10:51:38;101520.41;;;20.85;66.80
74329;BME280;62749;51.982;5.916;2023-05-07T10:54:31;101525.91;;;22.36;63.68
74329;BME280;62749;51.982;5.916;2023-05-07T10:57:33;101525.47;;;24.04;57.55
74329;BME280;62749;51.982;5.916;2023-05-07T11:00:03;101535.09;;;24.28;55.31
74329;BME280;62749;51.982;5.916;2023-05-07T11:03:08;101536.44;;;24.12;55.72
74329;BME280;62749;51.982;5.916;2023-05-07T11:05:38;101520.50;;;23.99;55.85
74329;BME280;62749;51.982;5.916;2023-05-07T11:08:08;101524.00;;;23.26;59.22
74329;BME280;62749;51.982;5.916;2023-05-07T11:10:49;101523.81;;;22.63;62.15
74329;BME280;62749;51.982;5.916;2023-05-07T11:16:20;101525.41;;;21.74;63.04
74329;BME280;62749;51.982;5.916;2023-05-07T11:18:54;101519.97;;;21.63;62.48
74329;BME280;62749;51.982;5.916;2023-05-07T11:21:38;101518.16;;;21.64;63.77
74329;BME280;62749;51.982;5.916;2023-05-07T11:24:08;101516.50;;;21.50;63.36
74329;BME280;62749;51.982;5.916;2023-05-07T11:26:44;101521.59;;;21.30;63.50
74329;BME280;62749;51.982;5.916;2023-05-07T11:29:16;101528.03;;;21.16;63.84
74329;BME280;62749;51.982;5.916;2023-05-07T11:31:49;101525.59;;;21.24;65.06
74329;BME280;62749;51.982;5.916;2023-05-07T11:34:26;101519.66;;;21.32;65.23
74329;BME280;62749;51.982;5.916;2023-05-07T11:36:55;101521.88;;;21.50;64.51
74329;BME280;62749;51.982;5.916;2023-05-07T11:39:29;101530.88;;;21.37;64.21
74329;BME280;62749;51.982;5.916;2023-05-07T11:42:00;101519.41;;;20.99;65.60
74329;BME280;62749;51.982;5.916;2023-05-07T11:44:42;101525.25;;;21.05;65.67
74329;BME280;62749;51.982;5.916;2023-05-07T11:47:17;101530.81;;;21.14;66.03
74329;BME280;62749;51.982;5.916;2023-05-07T11:49:51;101519.84;;;20.93;65.85
74329;BME280;62749;51.982;5.916;2023-05-07T11:52:23;101516.44;;;20.91;66.18
74329;BME280;62749;51.982;5.916;2023-05-07T11:54:54;101515.00;;;20.98;66.30
74329;BME280;62749;51.982;5.916;2023-05-07T11:57:25;101520.25;;;21.00;64.68
74329;BME280;62749;51.982;5.916;2023-05-07T11:59:55;101527.38;;;21.12;65.89
74329;BME280;62749;51.982;5.916;2023-05-07T12:02:25;101517.81;;;20.97;63.49
74329;BME280;62749;51.982;5.916;2023-05-07T12:05:00;101516.09;;;20.96;63.50
74329;BME280;62749;51.982;5.916;2023-05-07T12:07:30;101519.88;;;21.05;63.66
74329;BME280;62749;51.982;5.916;2023-05-07T12:10:04;101524.19;;;21.07;63.78
74329;BME280;62749;51.982;5.916;2023-05-07T12:12:38;101524.94;;;21.09;64.58
74329;BME280;62749;51.982;5.916;2023-05-07T12:15:09;101509.31;;;21.14;64.15
74329;BME280;62749;51.982;5.916;2023-05-07T12:17:39;101508.03;;;20.96;65.20
74329;BME280;62749;51.982;5.916;2023-05-07T12:20:12;101516.97;;;21.08;64.47
74329;BME280;62749;51.982;5.916;2023-05-07T12:22:42;101520.94;;;20.91;63.95
74329;BME280;62749;51.982;5.916;2023-05-07T12:25:12;101526.03;;;20.82;65.23
74329;BME280;62749;51.982;5.916;2023-05-07T12:27:51;101522.59;;;20.80;64.92
74329;BME280;62749;51.982;5.916;2023-05-07T12:30:20;101529.97;;;20.90;64.76
74329;BME280;62749;51.982;5.916;2023-05-07T12:32:53;101524.19;;;20.83;64.95
74329;BME280;62749;51.982;5.916;2023-05-07T12:35:32;101525.16;;;20.82;63.77
74329;BME280;62749;51.982;5.916;2023-05-07T12:38:08;101529.56;;;20.83;65.92
74329;BME280;62749;51.982;5.916;2023-05-07T12:40:39;101530.19;;;20.87;65.00
74329;BME280;62749;51.982;5.916;2023-05-07T12:43:15;101529.75;;;20.93;64.45
74329;BME280;62749;51.982;5.916;2023-05-07T12:45:48;101540.00;;;20.99;67.40
74329;BME280;62749;51.982;5.916;2023-05-07T12:48:19;101543.28;;;20.91;67.36
74329;BME280;62749;51.982;5.916;2023-05-07T12:50:53;101536.06;;;20.92;67.50
74329;BME280;62749;51.982;5.916;2023-05-07T12:53:24;101535.06;;;20.81;68.74
74329;BME280;62749;51.982;5.916;2023-05-07T12:55:56;101537.56;;;20.59;65.71
74329;BME280;62749;51.982;5.916;2023-05-07T12:58:27;101549.22;;;20.70;69.71
74329;BME280;62749;51.982;5.916;2023-05-07T13:00:58;101548.81;;;20.77;68.69
74329;BME280;62749;51.982;5.916;2023-05-07T13:03:30;101538.34;;;20.72;66.73
74329;BME280;62749;51.982;5.916;2023-05-07T13:06:04;101542.88;;;20.72;66.21
74329;BME280;62749;51.982;5.916;2023-05-07T13:08:35;101550.19;;;20.82;68.24
74329;BME280;62749;51.982;5.916;2023-05-07T13:11:08;101544.28;;;20.77;67.72
74329;BME280;62749;51.982;5.916;2023-05-07T13:13:39;101546.03;;;20.65;67.17